createdAt,value
2023-01-20T00:02:20.898Z,75.34
2023-01-20T00:05:18.657Z,69.23
2023-01-20T00:08:16.930Z,65.03
2023-01-20T00:11:16.978Z,62.30
2023-01-20T00:14:14.951Z,62.93
2023-01-20T00:17:12.403Z,58.97
2023-01-20T00:20:10.139Z,53.41
2023-01-20T00:23:07.598Z,52.64
2023-01-20T00:26:05.222Z,53.10
2023-01-20T00:29:02.947Z,53.74
2023-01-20T00:32:00.569Z,54.56
2023-01-20T00:34:58.271Z,55.36
2023-01-20T00:37:55.701Z,56.26
2023-01-20T00:40:53.588Z,57.20
2023-01-20T00:43:51.025Z,58.03
2023-01-20T00:46:48.797Z,58.70
2023-01-20T00:49:46.260Z,59.37
2023-01-20T00:52:43.978Z,60.06
2023-01-20T00:55:41.448Z,60.73
2023-01-20T00:58:39.213Z,61.43
2023-01-20T01:01:36.986Z,68.31
2023-01-20T01:04:34.614Z,79.15
2023-01-20T01:07:32.223Z,75.80
2023-01-20T01:10:29.652Z,71.82
2023-01-20T01:13:27.358Z,67.90
2023-01-20T01:16:24.870Z,63.83
2023-01-20T01:19:22.736Z,58.57
2023-01-20T01:22:20.462Z,53.53
2023-01-20T01:25:17.907Z,52.88
2023-01-20T01:28:15.642Z,53.29
2023-01-20T01:31:13.114Z,53.97
2023-01-20T01:34:11.269Z,54.96
2023-01-20T01:37:08.715Z,55.89
2023-01-20T01:40:06.449Z,56.75
2023-01-20T01:43:04.263Z,57.60
2023-01-20T01:46:01.772Z,58.57
2023-01-20T01:48:59.518Z,59.57
2023-01-20T01:51:56.943Z,60.00
2023-01-20T01:54:54.713Z,60.73
2023-01-20T01:57:52.172Z,66.12
2023-01-20T02:00:49.950Z,68.80
2023-01-20T02:03:47.424Z,69.38
2023-01-20T02:06:44.861Z,67.17
2023-01-20T02:09:42.695Z,65.82
2023-01-20T02:12:40.130Z,64.13
2023-01-20T02:15:37.846Z,68.02
2023-01-20T02:18:35.285Z,66.99
2023-01-20T02:21:32.980Z,63.91
2023-01-20T02:24:30.413Z,61.76
2023-01-20T02:27:28.100Z,58.29
2023-01-20T02:30:25.836Z,53.66
2023-01-20T02:33:23.270Z,53.02
2023-01-20T02:36:20.876Z,53.43
2023-01-20T02:39:27.273Z,54.15
2023-01-20T02:42:25.545Z,54.90
2023-01-20T02:45:23.007Z,55.75
2023-01-20T02:48:21.112Z,56.46
2023-01-20T02:51:18.859Z,57.28
2023-01-20T02:54:16.295Z,57.99
2023-01-20T02:57:13.967Z,58.73
2023-01-20T03:00:11.397Z,59.28
2023-01-20T03:03:09.210Z,59.86
2023-01-20T03:06:06.651Z,60.46
2023-01-20T03:09:04.416Z,60.87
2023-01-20T03:12:02.180Z,65.18
2023-01-20T03:14:59.613Z,71.30
2023-01-20T03:17:57.306Z,69.10
2023-01-20T03:20:54.773Z,67.00
2023-01-20T03:23:52.545Z,64.54
2023-01-20T03:26:49.959Z,63.78
2023-01-20T03:29:47.591Z,63.50
2023-01-20T03:32:46.065Z,60.90
2023-01-20T03:35:43.778Z,57.78
2023-01-20T03:38:41.481Z,55.48
2023-01-20T03:41:38.911Z,55.31
2023-01-20T03:44:36.607Z,55.81
2023-01-20T03:47:34.531Z,56.47
2023-01-20T03:50:32.244Z,57.08
2023-01-20T03:53:29.712Z,57.83
2023-01-20T03:56:27.375Z,58.59
2023-01-20T03:59:24.803Z,59.17
2023-01-20T04:02:22.703Z,59.78
2023-01-20T04:05:20.568Z,60.41
2023-01-20T04:08:17.993Z,61.03
2023-01-20T04:11:15.732Z,65.03
2023-01-20T04:14:13.153Z,74.16
2023-01-20T04:17:10.788Z,75.84
2023-01-20T04:20:08.475Z,72.08
2023-01-20T04:23:05.938Z,67.52
2023-01-20T04:26:03.708Z,64.03
2023-01-20T04:29:10.409Z,63.74
2023-01-20T04:32:09.849Z,64.45
2023-01-20T04:35:07.285Z,57.71
2023-01-20T04:38:04.910Z,52.07
2023-01-20T04:41:03.679Z,51.34
2023-01-20T04:44:01.473Z,51.79
2023-01-20T04:46:59.167Z,52.53
2023-01-20T04:49:56.613Z,53.42
2023-01-20T04:52:54.242Z,54.49
2023-01-20T04:55:51.656Z,55.35
2023-01-20T04:58:49.387Z,56.29
2023-01-20T05:01:46.877Z,57.17
2023-01-20T05:04:45.669Z,57.89
2023-01-20T05:07:43.081Z,58.77
2023-01-20T05:10:40.695Z,59.39
2023-01-20T05:13:39.484Z,60.09
2023-01-20T05:16:37.211Z,60.77
2023-01-20T05:19:34.659Z,67.03
2023-01-20T05:22:33.563Z,77.26
2023-01-20T05:25:31.023Z,75.39
2023-01-20T05:28:28.801Z,72.73
2023-01-20T05:31:26.592Z,68.93
2023-01-20T05:34:24.059Z,62.33
2023-01-20T05:37:21.664Z,56.48
2023-01-20T05:40:19.104Z,51.90
2023-01-20T05:43:16.700Z,51.49
2023-01-20T05:46:14.199Z,52.15
2023-01-20T05:49:11.793Z,52.85
2023-01-20T05:52:09.223Z,53.70
2023-01-20T05:55:06.936Z,54.81
2023-01-20T05:58:04.366Z,55.62
2023-01-20T06:01:02.006Z,56.45
2023-01-20T06:03:59.654Z,57.41
2023-01-20T06:06:57.098Z,58.46
2023-01-20T06:09:54.862Z,59.06
2023-01-20T06:12:52.304Z,59.74
2023-01-20T06:15:50.067Z,60.43
2023-01-20T06:18:47.530Z,60.99
2023-01-20T06:21:46.898Z,66.11
2023-01-20T06:24:44.415Z,72.53
2023-01-20T06:27:42.104Z,71.32
2023-01-20T06:30:43.242Z,70.27
2023-01-20T06:33:41.221Z,66.91
2023-01-20T06:36:38.996Z,64.72
2023-01-20T06:39:36.658Z,62.73
2023-01-20T06:42:34.349Z,57.61
2023-01-20T06:45:31.914Z,52.63
2023-01-20T06:48:29.637Z,52.16
2023-01-20T06:51:27.068Z,52.41
2023-01-20T06:54:24.683Z,53.01
2023-01-20T06:57:22.128Z,53.96
2023-01-20T07:00:19.786Z,54.70
2023-01-20T07:03:17.447Z,55.49
2023-01-20T07:06:14.913Z,56.58
2023-01-20T07:09:12.808Z,57.25
2023-01-20T07:12:10.231Z,57.75
2023-01-20T07:15:07.990Z,58.30
2023-01-20T07:18:05.422Z,58.94
2023-01-20T07:21:03.198Z,59.32
2023-01-20T07:24:00.907Z,59.76
2023-01-20T07:26:58.352Z,60.15
2023-01-20T07:29:56.123Z,60.38
2023-01-20T07:32:53.558Z,60.76
2023-01-20T07:35:51.239Z,61.04
2023-01-20T07:38:48.717Z,61.16
2023-01-20T07:41:49.150Z,64.72
2023-01-20T07:44:46.923Z,69.21
2023-01-20T07:47:44.346Z,70.19
2023-01-20T07:50:42.154Z,69.37
2023-01-20T07:53:39.645Z,65.50
2023-01-20T07:56:37.355Z,62.22
2023-01-20T07:59:34.830Z,57.51
2023-01-20T08:02:32.601Z,54.12
2023-01-20T08:05:30.047Z,53.44
2023-01-20T08:08:28.100Z,53.62
2023-01-20T08:11:25.794Z,54.12
2023-01-20T08:14:23.219Z,54.70
2023-01-20T08:17:21.012Z,55.20
2023-01-20T08:20:19.715Z,55.55
2023-01-20T08:23:17.579Z,56.08
2023-01-20T08:26:15.015Z,56.56
2023-01-20T08:29:13.537Z,57.21
2023-01-20T08:32:11.033Z,57.17
2023-01-20T08:35:09.044Z,57.55
2023-01-20T08:38:08.055Z,58.10
2023-01-20T08:41:05.493Z,58.00
2023-01-20T08:44:03.263Z,58.14
2023-01-20T08:47:02.797Z,58.44
2023-01-20T08:50:00.543Z,58.31
2023-01-20T08:52:57.984Z,58.58
2023-01-20T08:55:55.586Z,58.68
2023-01-20T08:58:54.106Z,59.16
2023-01-20T09:01:51.834Z,58.92
2023-01-20T09:04:50.603Z,58.83
2023-01-20T09:07:48.034Z,58.90
2023-01-20T09:10:45.758Z,58.99
2023-01-20T09:13:43.328Z,59.13
2023-01-20T09:16:41.092Z,58.96
2023-01-20T09:19:38.549Z,59.16
2023-01-20T09:22:36.311Z,59.12
2023-01-20T09:25:33.759Z,58.85
2023-01-20T09:28:31.464Z,58.82
2023-01-20T09:31:28.989Z,59.24
2023-01-20T09:34:26.874Z,59.03
2023-01-20T09:37:38.175Z,58.90
2023-01-20T09:40:53.774Z,58.59
2023-01-20T09:43:57.352Z,59.52
2023-01-20T09:47:09.022Z,58.58
2023-01-20T09:50:24.730Z,58.55
2023-01-20T09:53:22.216Z,58.26
2023-01-20T09:56:19.960Z,58.12
2023-01-20T09:59:17.381Z,58.05
2023-01-20T10:02:15.081Z,58.16
2023-01-20T10:05:13.572Z,58.32
2023-01-20T10:08:11.424Z,57.72
2023-01-20T10:11:08.878Z,57.73
2023-01-20T10:14:06.613Z,57.86
2023-01-20T10:17:04.291Z,57.58
2023-01-20T10:20:03.962Z,57.10
2023-01-20T10:23:01.687Z,57.36
2023-01-20T10:25:59.123Z,57.50
2023-01-20T10:28:57.014Z,57.63
2023-01-20T10:31:54.478Z,56.91
2023-01-20T10:34:52.246Z,57.03
2023-01-20T10:37:50.010Z,57.37
2023-01-20T10:40:47.522Z,56.99
2023-01-20T10:43:45.529Z,56.80
2023-01-20T10:46:42.999Z,56.96
2023-01-20T10:49:40.959Z,57.47
2023-01-20T10:52:38.414Z,57.23
2023-01-20T10:55:36.167Z,57.24
2023-01-20T10:58:33.595Z,57.49
2023-01-20T11:01:31.861Z,56.92
2023-01-20T11:04:29.289Z,56.76
2023-01-20T11:07:26.969Z,57.06
2023-01-20T11:10:25.157Z,57.06
2023-01-20T11:13:22.916Z,57.41
2023-01-20T11:16:20.824Z,57.73
2023-01-20T11:19:18.294Z,57.55
2023-01-20T11:22:20.919Z,57.62
2023-01-20T11:25:18.371Z,57.65
2023-01-20T11:28:16.178Z,57.44
2023-01-20T11:31:13.780Z,57.56
2023-01-20T11:34:11.627Z,57.79
2023-01-20T11:37:09.088Z,58.31
2023-01-20T11:40:06.903Z,58.07
2023-01-20T11:43:04.347Z,58.27
2023-01-20T11:46:02.123Z,58.09
2023-01-20T11:48:59.546Z,58.02
2023-01-20T11:51:57.405Z,58.01
2023-01-20T11:54:54.898Z,58.08
2023-01-20T11:57:52.577Z,57.98
2023-01-20T12:00:50.264Z,57.97
2023-01-20T12:03:47.769Z,57.95
2023-01-20T12:06:45.729Z,57.60
2023-01-20T12:09:43.199Z,57.86
2023-01-20T12:12:40.904Z,58.16
2023-01-20T12:15:38.370Z,57.84
2023-01-20T12:18:36.733Z,58.15
2023-01-20T12:21:34.422Z,57.84
2023-01-20T12:24:51.924Z,57.73
2023-01-20T12:27:49.678Z,57.99
2023-01-20T12:30:47.118Z,58.11
2023-01-20T12:33:44.852Z,58.47
2023-01-20T12:36:42.632Z,58.23
2023-01-20T12:39:40.058Z,58.00
2023-01-20T12:42:37.790Z,57.84
2023-01-20T12:45:35.279Z,57.86
2023-01-20T12:48:33.073Z,57.85
2023-01-20T12:51:30.485Z,58.15
2023-01-20T12:54:35.845Z,58.36
2023-01-20T12:57:40.595Z,58.07
2023-01-20T13:00:38.473Z,58.23
2023-01-20T13:03:36.160Z,58.42
2023-01-20T13:06:33.595Z,58.86
2023-01-20T13:09:31.199Z,58.97
2023-01-20T13:12:28.649Z,59.04
2023-01-20T13:15:26.400Z,59.22
2023-01-20T13:18:23.862Z,59.51
2023-01-20T13:21:21.574Z,59.45
2023-01-20T13:24:24.712Z,59.72
2023-01-20T13:27:22.178Z,59.85
2023-01-20T13:30:19.921Z,60.00
2023-01-20T13:33:17.346Z,60.15
2023-01-20T13:36:14.959Z,60.11
2023-01-20T13:39:12.381Z,60.02
2023-01-20T13:42:10.171Z,60.38
2023-01-20T13:45:07.940Z,60.51
2023-01-20T13:48:05.367Z,60.67
2023-01-20T13:51:03.069Z,60.73
2023-01-20T13:54:00.500Z,60.92
2023-01-20T13:56:58.290Z,61.19
2023-01-20T13:59:55.757Z,61.37
2023-01-20T14:02:54.069Z,61.49
2023-01-20T14:05:52.248Z,61.69
2023-01-20T14:08:49.698Z,61.86
2023-01-20T14:11:47.369Z,61.96
2023-01-20T14:14:47.685Z,62.13
2023-01-20T14:17:45.429Z,63.89
2023-01-20T14:20:43.148Z,66.07
2023-01-20T14:23:40.866Z,67.15
2023-01-20T14:26:38.304Z,69.96
2023-01-20T14:29:35.980Z,67.09
2023-01-20T14:32:34.148Z,64.21
2023-01-20T14:35:32.225Z,61.85
2023-01-20T14:38:29.847Z,57.56
2023-01-20T14:41:27.285Z,54.07
2023-01-20T14:44:25.020Z,53.17
2023-01-20T14:47:22.460Z,53.66
2023-01-20T14:50:20.239Z,54.51
2023-01-20T14:53:17.813Z,54.81
2023-01-20T14:56:15.581Z,55.66
2023-01-20T14:59:13.348Z,56.37
2023-01-20T15:02:10.759Z,57.05
2023-01-20T15:05:08.477Z,57.52
2023-01-20T15:08:05.925Z,57.69
2023-01-20T15:11:03.514Z,58.00
2023-01-20T15:14:01.362Z,58.68
2023-01-20T15:16:59.146Z,59.02
2023-01-20T15:19:56.583Z,59.73
2023-01-20T15:22:54.272Z,60.18
2023-01-20T15:25:52.036Z,60.77
2023-01-20T15:28:49.499Z,61.52
2023-01-20T15:31:47.251Z,61.54
2023-01-20T15:34:44.946Z,61.93
2023-01-20T15:37:42.806Z,66.34
2023-01-20T15:40:40.819Z,67.81
2023-01-20T15:43:38.528Z,65.82
2023-01-20T15:46:36.248Z,63.04
2023-01-20T15:49:33.722Z,62.93
2023-01-20T15:52:31.509Z,62.75
2023-01-20T15:55:29.002Z,62.62
2023-01-20T15:58:26.725Z,62.03
2023-01-20T16:01:25.103Z,61.70
2023-01-20T16:04:22.895Z,62.90
2023-01-20T16:07:20.367Z,61.20
2023-01-20T16:10:18.346Z,59.88
2023-01-20T16:13:16.307Z,58.77
2023-01-20T16:16:14.217Z,57.27
2023-01-20T16:19:11.852Z,57.67
2023-01-20T16:22:10.551Z,58.15
2023-01-20T16:25:08.263Z,58.44
2023-01-20T16:28:05.719Z,58.60
2023-01-20T16:31:03.556Z,59.21
2023-01-20T16:34:01.809Z,60.00
2023-01-20T16:36:59.299Z,60.17
2023-01-20T16:39:57.032Z,60.50
2023-01-20T16:42:54.812Z,60.88
2023-01-20T16:45:54.831Z,61.35
2023-01-20T16:48:53.552Z,61.34
2023-01-20T16:51:51.269Z,61.61
2023-01-20T16:54:48.708Z,64.20
2023-01-20T16:57:46.392Z,66.79
2023-01-20T17:00:43.933Z,65.88
2023-01-20T17:03:41.742Z,65.60
2023-01-20T17:06:42.224Z,71.85
2023-01-20T17:09:40.089Z,74.64
2023-01-20T17:12:38.273Z,69.51
2023-01-20T17:15:36.811Z,66.83
2023-01-20T17:18:34.859Z,59.23
2023-01-20T17:21:32.863Z,52.17
2023-01-20T17:24:33.601Z,50.90
2023-01-20T17:27:31.115Z,51.24
2023-01-20T17:30:29.230Z,52.05
2023-01-20T17:33:27.692Z,53.04
2023-01-20T17:36:25.913Z,53.54
2023-01-20T17:39:23.901Z,54.83
2023-01-20T17:42:21.596Z,55.95
2023-01-20T17:45:19.372Z,56.56
2023-01-20T17:48:17.162Z,57.25
2023-01-20T17:51:14.935Z,57.75
2023-01-20T17:54:13.320Z,58.48
2023-01-20T17:57:10.954Z,58.98
2023-01-20T18:00:12.209Z,59.58
2023-01-20T18:03:09.720Z,60.55
2023-01-20T18:06:07.677Z,60.67
2023-01-20T18:09:07.976Z,60.96
2023-01-20T18:12:06.192Z,61.52
2023-01-20T18:15:04.806Z,63.43
2023-01-20T18:18:03.078Z,74.23
2023-01-20T18:21:01.414Z,73.70
2023-01-20T18:23:59.399Z,67.53
2023-01-20T18:26:58.003Z,64.14
2023-01-20T18:29:58.939Z,56.67
2023-01-20T18:32:58.027Z,50.50
2023-01-20T18:35:55.605Z,49.74
2023-01-20T18:38:54.034Z,50.29
2023-01-20T18:41:52.938Z,51.20
2023-01-20T18:44:50.939Z,51.92
2023-01-20T18:47:48.934Z,53.50
2023-01-20T18:50:53.270Z,54.10
2023-01-20T18:53:53.065Z,54.83
2023-01-20T18:56:53.438Z,55.67
2023-01-20T18:59:52.651Z,55.99
2023-01-20T19:02:50.867Z,56.92
2023-01-20T19:05:49.612Z,57.26
2023-01-20T19:08:53.525Z,57.79
2023-01-20T19:11:57.131Z,57.77
2023-01-20T19:15:11.183Z,58.83
2023-01-20T19:18:11.622Z,58.79
2023-01-20T19:21:11.108Z,59.05
2023-01-20T19:24:12.700Z,59.38
2023-01-20T19:27:12.281Z,59.58
2023-01-20T19:30:11.418Z,59.79
2023-01-20T19:33:12.739Z,59.88
2023-01-20T19:36:10.800Z,60.10
2023-01-20T19:39:08.777Z,60.28
2023-01-20T19:42:06.536Z,60.64
2023-01-20T19:45:04.509Z,60.53
2023-01-20T19:48:03.209Z,60.71
2023-01-20T19:51:01.284Z,61.10
2023-01-20T19:53:59.699Z,61.51
2023-01-20T19:57:01.418Z,61.62
2023-01-20T20:00:00.041Z,65.51
2023-01-20T20:02:59.123Z,75.87
2023-01-20T20:05:58.738Z,70.79
2023-01-20T20:09:02.851Z,66.35
2023-01-20T20:12:05.777Z,65.00
2023-01-20T20:15:04.299Z,62.13
2023-01-20T20:18:04.135Z,58.05
2023-01-20T20:21:04.019Z,54.91
2023-01-20T20:24:02.822Z,55.09
2023-01-20T20:27:02.362Z,56.15
2023-01-20T20:30:02.488Z,57.18
2023-01-20T20:33:02.573Z,58.14
2023-01-20T20:36:01.677Z,59.59
2023-01-20T20:39:00.874Z,60.36
2023-01-20T20:42:00.166Z,65.09
2023-01-20T20:44:58.940Z,66.76
2023-01-20T20:47:56.933Z,65.94
2023-01-20T20:50:55.811Z,65.49
2023-01-20T20:53:54.540Z,64.62
2023-01-20T20:56:57.461Z,67.90
2023-01-20T20:59:59.499Z,66.46
2023-01-20T21:02:57.753Z,65.81
2023-01-20T21:05:56.088Z,66.12
2023-01-20T21:08:54.634Z,65.09
2023-01-20T21:11:54.237Z,65.37
2023-01-20T21:14:52.317Z,67.83
2023-01-20T21:17:51.067Z,65.58
2023-01-20T21:20:50.087Z,63.33
2023-01-20T21:23:48.220Z,65.34
2023-01-20T21:26:46.653Z,61.01
2023-01-20T21:29:44.555Z,57.56
2023-01-20T21:32:42.723Z,54.33
2023-01-20T21:35:40.764Z,54.71
2023-01-20T21:38:40.194Z,55.59
2023-01-20T21:41:37.961Z,56.71
2023-01-20T21:44:36.593Z,57.99
2023-01-20T21:47:34.378Z,59.09
2023-01-20T21:50:50.459Z,60.09
2023-01-20T21:53:48.530Z,63.42
2023-01-20T21:56:46.085Z,75.37
2023-01-20T21:59:44.080Z,73.44
2023-01-20T22:02:41.944Z,70.44
2023-01-20T22:05:39.437Z,67.30
2023-01-20T22:08:37.132Z,66.33
2023-01-20T22:11:34.648Z,63.52
2023-01-20T22:14:32.719Z,62.82
2023-01-20T22:17:30.620Z,57.10
2023-01-20T22:20:29.732Z,54.05
2023-01-20T22:23:27.472Z,55.12
2023-01-20T22:26:24.938Z,56.11
2023-01-20T22:29:22.721Z,57.29
2023-01-20T22:32:20.178Z,58.41
2023-01-20T22:35:17.901Z,59.72
2023-01-20T22:38:15.365Z,61.09
2023-01-20T22:41:13.065Z,67.58
2023-01-20T22:44:10.830Z,72.91
2023-01-20T22:47:10.352Z,68.48
2023-01-20T22:50:09.022Z,66.27
2023-01-20T22:53:06.455Z,64.23
2023-01-20T22:56:04.889Z,62.29
2023-01-20T22:59:02.713Z,62.43
2023-01-20T23:02:00.548Z,62.26
2023-01-20T23:04:58.006Z,62.85
2023-01-20T23:07:55.714Z,61.43
2023-01-20T23:10:53.129Z,61.09
2023-01-20T23:13:50.836Z,61.55
2023-01-20T23:16:48.513Z,62.20
2023-01-20T23:19:45.960Z,61.89
2023-01-20T23:22:43.640Z,61.88
2023-01-20T23:25:41.092Z,62.05
2023-01-20T23:28:38.737Z,63.25
2023-01-20T23:31:36.199Z,62.69
2023-01-20T23:34:34.000Z,63.62
2023-01-20T23:37:31.435Z,64.69
2023-01-20T23:40:30.538Z,63.72
2023-01-20T23:43:27.963Z,63.01
2023-01-20T23:46:25.782Z,62.22
2023-01-20T23:49:23.549Z,66.36
2023-01-20T23:52:21.846Z,72.66
2023-01-20T23:55:19.591Z,69.74
2023-01-20T23:58:17.022Z,64.93
